MAS720 WIII-WMKK
Flight info
| Callsign | MAS720 |
|---|---|
| Flight time | 1h 35m |
| Altitude | 36000 |
| Route | DOLTA A585 PKU/N0492F370 N633 SALAX SALAX1H |
| Aircraft | A339/H-SADE1E2E3GHIJ3J5M1P2RWXY/LB2D1 |
Departure
| Time | 2026-05-06 12:48 |
|---|---|
| Airport | Soekarno-Hatta International Airport (WIII) |
Arrival
| Time | 2026-05-06 14:23 |
|---|---|
| Airport | Kuala Lumpur International Airport (WMKK) |
| Time | Latitude | Longitude | Altitude | Speed | Heading |
|---|---|---|---|---|---|
| 2026-05-06 11:37 | -6.11730 | 106.66532 | 56 ft | 0 kts | 158° |
| 2026-05-06 12:31 | -6.11722 | 106.66529 | 55 ft | 2 kts | 158° |
| 2026-05-06 12:32 | -6.11708 | 106.66524 | 55 ft | 2 kts | 158° |
| 2026-05-06 12:32 | -6.11694 | 106.66518 | 55 ft | 2 kts | 158° |
| 2026-05-06 12:32 | -6.11680 | 106.66512 | 55 ft | 2 kts | 158° |
| 2026-05-06 12:32 | -6.11666 | 106.66507 | 55 ft | 2 kts | 158° |
| 2026-05-06 12:33 | -6.11652 | 106.66502 | 55 ft | 2 kts | 163° |
| 2026-05-06 12:33 | -6.11637 | 106.66502 | 55 ft | 2 kts | 205° |
| 2026-05-06 12:33 | -6.11625 | 106.66511 | 55 ft | 2 kts | 239° |
| 2026-05-06 12:33 | -6.11622 | 106.66517 | 55 ft | 1 kts | 250° |
| 2026-05-06 12:34 | -6.11621 | 106.66519 | 55 ft | 0 kts | 249° |
| 2026-05-06 12:37 | -6.11623 | 106.66516 | 55 ft | 1 kts | 249° |
| 2026-05-06 12:37 | -6.11626 | 106.66508 | 55 ft | 2 kts | 249° |
| 2026-05-06 12:38 | -6.11635 | 106.66484 | 55 ft | 5 kts | 249° |
| 2026-05-06 12:38 | -6.11645 | 106.66441 | 55 ft | 7 kts | 275° |
| 2026-05-06 12:38 | -6.11601 | 106.66393 | 55 ft | 10 kts | 332° |
| 2026-05-06 12:38 | -6.11527 | 106.66361 | 55 ft | 12 kts | 338° |
| 2026-05-06 12:39 | -6.11436 | 106.66325 | 55 ft | 14 kts | 339° |
| 2026-05-06 12:39 | -6.11363 | 106.66280 | 55 ft | 12 kts | 294° |
| 2026-05-06 12:39 | -6.11377 | 106.66190 | 55 ft | 14 kts | 249° |
| 2026-05-06 12:39 | -6.11416 | 106.66089 | 55 ft | 15 kts | 249° |
| 2026-05-06 12:40 | -6.11458 | 106.65984 | 55 ft | 16 kts | 248° |
| 2026-05-06 12:40 | -6.11504 | 106.65871 | 55 ft | 18 kts | 248° |
| 2026-05-06 12:40 | -6.11554 | 106.65743 | 55 ft | 20 kts | 248° |
| 2026-05-06 12:40 | -6.11606 | 106.65614 | 55 ft | 20 kts | 248° |
| 2026-05-06 12:41 | -6.11658 | 106.65482 | 55 ft | 20 kts | 248° |
| 2026-05-06 12:41 | -6.11709 | 106.65353 | 55 ft | 19 kts | 249° |
| 2026-05-06 12:41 | -6.11762 | 106.65223 | 55 ft | 19 kts | 248° |
| 2026-05-06 12:41 | -6.11813 | 106.65095 | 55 ft | 19 kts | 248° |
| 2026-05-06 12:42 | -6.11864 | 106.64967 | 55 ft | 19 kts | 249° |
| 2026-05-06 12:42 | -6.11915 | 106.64837 | 55 ft | 19 kts | 248° |
| 2026-05-06 12:42 | -6.11967 | 106.64708 | 55 ft | 20 kts | 249° |
| 2026-05-06 12:42 | -6.12019 | 106.64573 | 55 ft | 21 kts | 248° |
| 2026-05-06 12:43 | -6.12078 | 106.64429 | 55 ft | 22 kts | 248° |
| 2026-05-06 12:43 | -6.12135 | 106.64282 | 55 ft | 22 kts | 249° |
| 2026-05-06 12:43 | -6.12192 | 106.64142 | 55 ft | 20 kts | 248° |
| 2026-05-06 12:43 | -6.12237 | 106.64024 | 55 ft | 11 kts | 249° |
| 2026-05-06 12:44 | -6.12256 | 106.63972 | 55 ft | 8 kts | 255° |
| 2026-05-06 12:44 | -6.12248 | 106.63913 | 55 ft | 9 kts | 305° |
| 2026-05-06 12:44 | -6.12231 | 106.63898 | 55 ft | 0 kts | 327° |
| 2026-05-06 12:46 | -6.12219 | 106.63892 | 55 ft | 7 kts | 335° |
| 2026-05-06 12:46 | -6.12149 | 106.63900 | 55 ft | 11 kts | 22° |
| 2026-05-06 12:46 | -6.12082 | 106.63945 | 55 ft | 12 kts | 54° |
| 2026-05-06 12:46 | -6.12047 | 106.64019 | 55 ft | 5 kts | 67° |
| 2026-05-06 12:47 | -6.12046 | 106.64021 | 55 ft | 0 kts | 67° |
| 2026-05-06 12:47 | -6.12039 | 106.64037 | 55 ft | 8 kts | 68° |
| 2026-05-06 12:47 | -6.11976 | 106.64198 | 55 ft | 53 kts | 68° |
| 2026-05-06 12:48 | -6.11750 | 106.64761 | 55 ft | 117 kts | 68° |
| 2026-05-06 12:48 | -6.11381 | 106.65690 | 73 ft | 165 kts | 68° |
| 2026-05-06 12:48 | -6.10943 | 106.66789 | 537 ft | 172 kts | 67° |
| 2026-05-06 12:48 | -6.10497 | 106.67905 | 1130 ft | 175 kts | 66° |
| 2026-05-06 12:49 | -6.09814 | 106.68903 | 1603 ft | 178 kts | 38° |
| 2026-05-06 12:49 | -6.08728 | 106.69589 | 1884 ft | 193 kts | 30° |
| 2026-05-06 12:49 | -6.07488 | 106.70268 | 2175 ft | 209 kts | 30° |
| 2026-05-06 12:49 | -6.06176 | 106.71013 | 2504 ft | 226 kts | 32° |
| 2026-05-06 12:50 | -6.04763 | 106.71856 | 2837 ft | 243 kts | 31° |
| 2026-05-06 12:50 | -6.03256 | 106.72754 | 3192 ft | 260 kts | 31° |
| 2026-05-06 12:50 | -6.01684 | 106.73691 | 3771 ft | 267 kts | 31° |
| 2026-05-06 12:50 | -6.00081 | 106.74647 | 4485 ft | 268 kts | 33° |
| 2026-05-06 12:51 | -5.98418 | 106.75510 | 5111 ft | 273 kts | 17° |
| 2026-05-06 12:51 | -5.96505 | 106.75532 | 5677 ft | 283 kts | 347° |
| 2026-05-06 12:51 | -5.94770 | 106.74613 | 6268 ft | 290 kts | 319° |
| 2026-05-06 12:51 | -5.93325 | 106.73152 | 6865 ft | 293 kts | 316° |
| 2026-05-06 12:52 | -5.91899 | 106.71687 | 7445 ft | 296 kts | 316° |
| 2026-05-06 12:52 | -5.90454 | 106.70226 | 8176 ft | 299 kts | 316° |
| 2026-05-06 12:52 | -5.88988 | 106.68755 | 9040 ft | 298 kts | 316° |
| 2026-05-06 12:52 | -5.87513 | 106.67281 | 9984 ft | 298 kts | 315° |
| 2026-05-06 12:53 | -5.86045 | 106.65813 | 10833 ft | 301 kts | 315° |
| 2026-05-06 12:53 | -5.84533 | 106.64298 | 11097 ft | 318 kts | 315° |
| 2026-05-06 12:53 | -5.82925 | 106.62690 | 11277 ft | 336 kts | 316° |
| 2026-05-06 12:53 | -5.81217 | 106.60984 | 11474 ft | 349 kts | 316° |
| 2026-05-06 12:54 | -5.79476 | 106.59244 | 11815 ft | 355 kts | 316° |
| 2026-05-06 12:54 | -5.77712 | 106.57481 | 12286 ft | 361 kts | 316° |
| 2026-05-06 12:54 | -5.75931 | 106.55699 | 12807 ft | 363 kts | 316° |
| 2026-05-06 12:54 | -5.74132 | 106.53898 | 13363 ft | 368 kts | 316° |
| 2026-05-06 12:55 | -5.72318 | 106.52080 | 13989 ft | 371 kts | 316° |
| 2026-05-06 12:55 | -5.70477 | 106.50239 | 14620 ft | 373 kts | 316° |
| 2026-05-06 12:55 | -5.68637 | 106.48402 | 15253 ft | 375 kts | 316° |
| 2026-05-06 12:55 | -5.66776 | 106.46542 | 15867 ft | 377 kts | 316° |
| 2026-05-06 12:56 | -5.64917 | 106.44686 | 16467 ft | 379 kts | 316° |
| 2026-05-06 12:56 | -5.63055 | 106.42828 | 17046 ft | 382 kts | 316° |
| 2026-05-06 12:56 | -5.61156 | 106.40932 | 17607 ft | 385 kts | 316° |
| 2026-05-06 12:56 | -5.59241 | 106.39023 | 18145 ft | 389 kts | 316° |
| 2026-05-06 12:57 | -5.57336 | 106.37122 | 18659 ft | 393 kts | 317° |
| 2026-05-06 12:57 | -5.55388 | 106.35179 | 19165 ft | 396 kts | 317° |
| 2026-05-06 12:57 | -5.53419 | 106.33215 | 19659 ft | 400 kts | 317° |
| 2026-05-06 12:57 | -5.51430 | 106.31232 | 20141 ft | 402 kts | 317° |
| 2026-05-06 12:58 | -5.49442 | 106.29250 | 20603 ft | 406 kts | 317° |
| 2026-05-06 12:58 | -5.47427 | 106.27241 | 21060 ft | 409 kts | 317° |
| 2026-05-06 12:58 | -5.45427 | 106.25247 | 21495 ft | 412 kts | 317° |
| 2026-05-06 12:58 | -5.43384 | 106.23209 | 21924 ft | 415 kts | 317° |
| 2026-05-06 12:59 | -5.41305 | 106.21139 | 22346 ft | 418 kts | 317° |
| 2026-05-06 12:59 | -5.39255 | 106.19096 | 22722 ft | 421 kts | 317° |
| 2026-05-06 12:59 | -5.37163 | 106.17013 | 22841 ft | 423 kts | 317° |
| 2026-05-06 12:59 | -5.35074 | 106.14930 | 22844 ft | 422 kts | 317° |
| 2026-05-06 13:00 | -5.32995 | 106.12859 | 22846 ft | 421 kts | 317° |
| 2026-05-06 13:00 | -5.30918 | 106.10786 | 22845 ft | 422 kts | 317° |
| 2026-05-06 13:00 | -5.28824 | 106.08698 | 23054 ft | 427 kts | 317° |
| 2026-05-06 13:00 | -5.26715 | 106.06593 | 23576 ft | 427 kts | 317° |
| 2026-05-06 13:01 | -5.24589 | 106.04475 | 24070 ft | 428 kts | 317° |
| 2026-05-06 13:01 | -5.22477 | 106.02370 | 24509 ft | 430 kts | 317° |
| 2026-05-06 13:01 | -5.20358 | 106.00257 | 24917 ft | 433 kts | 317° |
| 2026-05-06 13:01 | -5.18215 | 105.98122 | 25580 ft | 428 kts | 317° |
| 2026-05-06 13:02 | -5.16142 | 105.96057 | 26428 ft | 418 kts | 317° |
| 2026-05-06 13:02 | -5.14074 | 105.94063 | 27173 ft | 405 kts | 321° |
| 2026-05-06 13:02 | -5.11890 | 105.92300 | 27652 ft | 404 kts | 326° |
| 2026-05-06 13:02 | -5.09512 | 105.90739 | 27849 ft | 410 kts | 331° |
| 2026-05-06 13:03 | -5.07025 | 105.89304 | 27872 ft | 422 kts | 332° |
| 2026-05-06 13:03 | -5.04435 | 105.87844 | 28025 ft | 430 kts | 332° |
| 2026-05-06 13:03 | -5.01782 | 105.86351 | 28176 ft | 438 kts | 332° |
| 2026-05-06 13:03 | -4.99085 | 105.84827 | 28322 ft | 446 kts | 332° |
| 2026-05-06 13:04 | -4.96393 | 105.83301 | 28506 ft | 452 kts | 332° |
| 2026-05-06 13:04 | -4.93627 | 105.81728 | 28818 ft | 456 kts | 332° |
| 2026-05-06 13:04 | -4.90850 | 105.80148 | 29185 ft | 458 kts | 332° |
| 2026-05-06 13:04 | -4.88071 | 105.78567 | 29546 ft | 460 kts | 332° |
| 2026-05-06 13:05 | -4.85286 | 105.76983 | 29886 ft | 462 kts | 332° |
| 2026-05-06 13:05 | -4.82455 | 105.75372 | 30224 ft | 465 kts | 332° |
| 2026-05-06 13:05 | -4.79636 | 105.73767 | 30551 ft | 467 kts | 332° |
| 2026-05-06 13:05 | -4.76802 | 105.72155 | 30875 ft | 470 kts | 332° |
| 2026-05-06 13:06 | -4.73946 | 105.70528 | 31190 ft | 472 kts | 331° |
| 2026-05-06 13:06 | -4.71070 | 105.68891 | 31508 ft | 474 kts | 331° |
| 2026-05-06 13:06 | -4.68196 | 105.67255 | 31825 ft | 477 kts | 331° |
| 2026-05-06 13:06 | -4.65308 | 105.65610 | 32145 ft | 479 kts | 331° |
| 2026-05-06 13:07 | -4.62411 | 105.63963 | 32583 ft | 478 kts | 331° |
| 2026-05-06 13:07 | -4.59533 | 105.62324 | 33124 ft | 476 kts | 331° |
| 2026-05-06 13:07 | -4.56667 | 105.60693 | 33698 ft | 473 kts | 331° |
| 2026-05-06 13:07 | -4.53778 | 105.59049 | 34285 ft | 471 kts | 331° |
| 2026-05-06 13:08 | -4.50934 | 105.57431 | 34787 ft | 469 kts | 331° |
| 2026-05-06 13:08 | -4.48128 | 105.55835 | 35189 ft | 470 kts | 331° |
| 2026-05-06 13:08 | -4.45267 | 105.54208 | 35540 ft | 471 kts | 331° |
| 2026-05-06 13:08 | -4.42397 | 105.52576 | 35838 ft | 473 kts | 331° |
| 2026-05-06 13:09 | -4.39515 | 105.50937 | 35872 ft | 477 kts | 331° |
| 2026-05-06 13:09 | -4.33678 | 105.47619 | 35872 ft | 490 kts | 331° |
| 2026-05-06 13:10 | -4.27721 | 105.44233 | 35873 ft | 493 kts | 331° |
| 2026-05-06 13:10 | -4.21735 | 105.40829 | 35872 ft | 494 kts | 331° |
| 2026-05-06 13:11 | -4.15736 | 105.37420 | 35869 ft | 494 kts | 331° |
| 2026-05-06 13:11 | -4.09770 | 105.34030 | 35868 ft | 494 kts | 331° |
| 2026-05-06 13:12 | -4.03763 | 105.30615 | 35868 ft | 494 kts | 331° |
| 2026-05-06 13:12 | -3.97801 | 105.27227 | 35863 ft | 495 kts | 331° |
| 2026-05-06 13:13 | -3.91790 | 105.23813 | 35856 ft | 494 kts | 331° |
| 2026-05-06 13:13 | -3.85766 | 105.20418 | 35853 ft | 494 kts | 332° |
| 2026-05-06 13:14 | -3.79801 | 105.17066 | 35853 ft | 494 kts | 332° |
| 2026-05-06 13:14 | -3.73778 | 105.13679 | 35851 ft | 493 kts | 332° |
| 2026-05-06 13:15 | -3.67818 | 105.10323 | 35853 ft | 493 kts | 332° |
| 2026-05-06 13:15 | -3.61835 | 105.06958 | 35853 ft | 493 kts | 332° |
| 2026-05-06 13:16 | -3.55848 | 105.03589 | 35852 ft | 493 kts | 332° |
| 2026-05-06 13:16 | -3.49854 | 105.00217 | 35852 ft | 493 kts | 332° |
| 2026-05-06 13:17 | -3.43853 | 104.96841 | 35852 ft | 492 kts | 332° |
| 2026-05-06 13:17 | -3.37888 | 104.93482 | 35851 ft | 492 kts | 332° |
| 2026-05-06 13:18 | -3.31931 | 104.90131 | 35852 ft | 491 kts | 332° |
| 2026-05-06 13:18 | -3.25937 | 104.86758 | 35852 ft | 492 kts | 332° |
| 2026-05-06 13:19 | -3.19955 | 104.83398 | 35852 ft | 492 kts | 332° |
| 2026-05-06 13:19 | -3.14000 | 104.80050 | 35852 ft | 491 kts | 332° |
| 2026-05-06 13:20 | -3.08036 | 104.76696 | 35852 ft | 491 kts | 332° |
| 2026-05-06 13:20 | -3.02088 | 104.73350 | 35853 ft | 490 kts | 332° |
| 2026-05-06 13:21 | -2.96122 | 104.69995 | 35853 ft | 491 kts | 332° |
| 2026-05-06 13:21 | -2.90261 | 104.66396 | 35855 ft | 492 kts | 327° |
| 2026-05-06 13:22 | -2.84822 | 104.62234 | 35854 ft | 494 kts | 321° |
| 2026-05-06 13:22 | -2.79794 | 104.57548 | 35854 ft | 495 kts | 317° |
| 2026-05-06 13:23 | -2.74882 | 104.52743 | 35851 ft | 495 kts | 316° |
| 2026-05-06 13:23 | -2.69930 | 104.47900 | 35852 ft | 495 kts | 316° |
| 2026-05-06 13:24 | -2.65031 | 104.43117 | 35849 ft | 494 kts | 316° |
| 2026-05-06 13:24 | -2.60107 | 104.38314 | 35852 ft | 494 kts | 317° |
| 2026-05-06 13:25 | -2.55184 | 104.33516 | 35852 ft | 495 kts | 317° |
| 2026-05-06 13:25 | -2.50222 | 104.28680 | 35852 ft | 495 kts | 317° |
| 2026-05-06 13:26 | -2.45320 | 104.23904 | 35851 ft | 495 kts | 316° |
| 2026-05-06 13:26 | -2.40358 | 104.19065 | 35852 ft | 495 kts | 317° |
| 2026-05-06 13:27 | -2.35445 | 104.14276 | 35853 ft | 494 kts | 316° |
| 2026-05-06 13:27 | -2.30534 | 104.09492 | 35848 ft | 494 kts | 316° |
| 2026-05-06 13:28 | -2.25608 | 104.04693 | 35842 ft | 494 kts | 316° |
| 2026-05-06 13:28 | -2.20656 | 103.99871 | 35844 ft | 495 kts | 316° |
| 2026-05-06 13:29 | -2.15730 | 103.95074 | 35850 ft | 495 kts | 316° |
| 2026-05-06 13:29 | -2.10791 | 103.90263 | 35854 ft | 495 kts | 316° |
| 2026-05-06 13:30 | -2.05884 | 103.85483 | 35854 ft | 494 kts | 316° |
| 2026-05-06 13:30 | -2.00952 | 103.80683 | 35855 ft | 494 kts | 316° |
| 2026-05-06 13:31 | -1.96025 | 103.75886 | 35855 ft | 494 kts | 316° |
| 2026-05-06 13:31 | -1.91098 | 103.71091 | 35854 ft | 495 kts | 316° |
| 2026-05-06 13:32 | -1.86135 | 103.66260 | 35856 ft | 495 kts | 316° |
| 2026-05-06 13:32 | -1.81212 | 103.61468 | 35855 ft | 495 kts | 316° |
| 2026-05-06 13:33 | -1.76259 | 103.56647 | 35856 ft | 495 kts | 316° |
| 2026-05-06 13:33 | -1.71349 | 103.51868 | 35856 ft | 495 kts | 316° |
| 2026-05-06 13:34 | -1.66402 | 103.47054 | 35857 ft | 495 kts | 316° |
| 2026-05-06 13:34 | -1.61459 | 103.42245 | 35856 ft | 495 kts | 316° |
| 2026-05-06 13:35 | -1.56509 | 103.37431 | 35856 ft | 496 kts | 316° |
| 2026-05-06 13:35 | -1.51557 | 103.32611 | 35855 ft | 496 kts | 316° |
| 2026-05-06 13:36 | -1.46626 | 103.27814 | 35858 ft | 496 kts | 316° |
| 2026-05-06 13:36 | -1.41682 | 103.23003 | 35857 ft | 496 kts | 316° |
| 2026-05-06 13:37 | -1.36728 | 103.18185 | 35858 ft | 496 kts | 316° |
| 2026-05-06 13:37 | -1.31798 | 103.13390 | 35859 ft | 496 kts | 316° |
| 2026-05-06 13:38 | -1.26861 | 103.08588 | 35861 ft | 496 kts | 316° |
| 2026-05-06 13:38 | -1.21896 | 103.03758 | 35860 ft | 496 kts | 316° |
| 2026-05-06 13:39 | -1.16932 | 102.98928 | 35862 ft | 498 kts | 316° |
| 2026-05-06 13:39 | -1.11969 | 102.94099 | 35864 ft | 498 kts | 316° |
| 2026-05-06 13:40 | -1.06993 | 102.89259 | 35863 ft | 498 kts | 316° |
| 2026-05-06 13:40 | -1.02038 | 102.84457 | 35866 ft | 497 kts | 316° |
| 2026-05-06 13:41 | -0.97063 | 102.79633 | 35871 ft | 497 kts | 316° |
| 2026-05-06 13:41 | -0.92107 | 102.74825 | 35873 ft | 497 kts | 316° |
| 2026-05-06 13:42 | -0.87159 | 102.70023 | 35872 ft | 498 kts | 316° |
| 2026-05-06 13:42 | -0.82180 | 102.65192 | 35871 ft | 498 kts | 316° |
| 2026-05-06 13:43 | -0.77192 | 102.60355 | 35871 ft | 498 kts | 316° |
| 2026-05-06 13:43 | -0.72257 | 102.55566 | 35872 ft | 497 kts | 316° |
| 2026-05-06 13:44 | -0.67288 | 102.50745 | 35871 ft | 498 kts | 316° |
| 2026-05-06 13:44 | -0.62295 | 102.45903 | 35869 ft | 497 kts | 316° |
| 2026-05-06 13:45 | -0.57338 | 102.41093 | 35867 ft | 498 kts | 316° |
| 2026-05-06 13:45 | -0.49906 | 102.33885 | 35864 ft | 498 kts | 316° |
| 2026-05-06 13:46 | -0.44922 | 102.29050 | 35860 ft | 498 kts | 316° |
| 2026-05-06 13:46 | -0.39937 | 102.24216 | 35861 ft | 499 kts | 316° |
| 2026-05-06 13:47 | -0.34939 | 102.19368 | 35860 ft | 499 kts | 316° |
| 2026-05-06 13:47 | -0.29968 | 102.14548 | 35859 ft | 499 kts | 316° |
| 2026-05-06 13:48 | -0.24983 | 102.09713 | 35860 ft | 500 kts | 316° |
| 2026-05-06 13:48 | -0.19978 | 102.04861 | 35858 ft | 501 kts | 316° |
| 2026-05-06 13:49 | -0.14987 | 102.00018 | 35860 ft | 501 kts | 316° |
| 2026-05-06 13:49 | -0.09983 | 101.95164 | 35860 ft | 501 kts | 316° |
| 2026-05-06 13:50 | -0.04986 | 101.90318 | 35860 ft | 501 kts | 316° |
| 2026-05-06 13:50 | 0.00040 | 101.85442 | 35859 ft | 501 kts | 316° |
| 2026-05-06 13:51 | 0.05015 | 101.80617 | 35859 ft | 501 kts | 316° |
| 2026-05-06 13:51 | 0.10032 | 101.75753 | 35858 ft | 501 kts | 316° |
| 2026-05-06 13:52 | 0.15041 | 101.70889 | 35857 ft | 500 kts | 316° |
| 2026-05-06 13:52 | 0.20063 | 101.66014 | 35858 ft | 500 kts | 316° |
| 2026-05-06 13:53 | 0.25044 | 101.61179 | 35859 ft | 499 kts | 316° |
| 2026-05-06 13:53 | 0.30027 | 101.56344 | 35858 ft | 499 kts | 316° |
| 2026-05-06 13:54 | 0.34994 | 101.51527 | 35851 ft | 491 kts | 317° |
| 2026-05-06 13:54 | 0.37559 | 101.49382 | 35853 ft | 476 kts | 325° |
| 2026-05-06 13:54 | 0.40332 | 101.47655 | 35859 ft | 472 kts | 333° |
| 2026-05-06 13:55 | 0.46480 | 101.45377 | 35610 ft | 465 kts | 348° |
| 2026-05-06 13:55 | 0.49656 | 101.44877 | 34952 ft | 465 kts | 356° |
| 2026-05-06 13:55 | 0.52901 | 101.44805 | 34030 ft | 468 kts | 4° |
| 2026-05-06 13:56 | 0.56167 | 101.45001 | 33059 ft | 473 kts | 5° |
| 2026-05-06 13:56 | 0.59477 | 101.45245 | 32194 ft | 476 kts | 5° |
| 2026-05-06 13:56 | 0.62793 | 101.45493 | 31690 ft | 472 kts | 5° |
| 2026-05-06 13:56 | 0.66047 | 101.45731 | 31233 ft | 468 kts | 5° |
| 2026-05-06 13:57 | 0.69258 | 101.45960 | 30805 ft | 463 kts | 5° |
| 2026-05-06 13:57 | 0.72495 | 101.46188 | 30336 ft | 459 kts | 5° |
| 2026-05-06 13:57 | 0.75651 | 101.46407 | 29859 ft | 455 kts | 5° |
| 2026-05-06 13:57 | 0.78809 | 101.46623 | 29380 ft | 451 kts | 5° |
| 2026-05-06 13:58 | 0.81933 | 101.46838 | 28902 ft | 448 kts | 5° |
| 2026-05-06 13:58 | 0.85065 | 101.47053 | 28502 ft | 443 kts | 6° |
| 2026-05-06 13:58 | 0.88140 | 101.47264 | 28187 ft | 442 kts | 6° |
| 2026-05-06 13:58 | 0.91176 | 101.47473 | 27874 ft | 440 kts | 6° |
| 2026-05-06 13:59 | 0.94250 | 101.47684 | 27555 ft | 438 kts | 6° |
| 2026-05-06 13:59 | 0.97304 | 101.47894 | 27242 ft | 436 kts | 6° |
| 2026-05-06 13:59 | 1.00333 | 101.48102 | 26929 ft | 434 kts | 6° |
| 2026-05-06 13:59 | 1.03331 | 101.48308 | 26617 ft | 432 kts | 6° |
| 2026-05-06 14:00 | 1.06319 | 101.48512 | 26253 ft | 428 kts | 6° |
| 2026-05-06 14:00 | 1.09296 | 101.48714 | 25793 ft | 426 kts | 6° |
| 2026-05-06 14:00 | 1.12276 | 101.48918 | 25323 ft | 423 kts | 6° |
| 2026-05-06 14:00 | 1.15239 | 101.49120 | 24873 ft | 420 kts | 6° |
| 2026-05-06 14:01 | 1.18128 | 101.49318 | 24438 ft | 417 kts | 6° |
| 2026-05-06 14:01 | 1.21015 | 101.49515 | 24023 ft | 414 kts | 6° |
| 2026-05-06 14:01 | 1.23900 | 101.49713 | 23854 ft | 410 kts | 6° |
| 2026-05-06 14:01 | 1.26749 | 101.49908 | 23850 ft | 413 kts | 6° |
| 2026-05-06 14:02 | 1.29620 | 101.50105 | 23851 ft | 413 kts | 6° |
| 2026-05-06 14:02 | 1.32517 | 101.50304 | 23849 ft | 414 kts | 6° |
| 2026-05-06 14:02 | 1.35401 | 101.50501 | 23828 ft | 412 kts | 6° |
| 2026-05-06 14:02 | 1.38230 | 101.50693 | 23311 ft | 406 kts | 6° |
| 2026-05-06 14:03 | 1.41030 | 101.50884 | 22551 ft | 403 kts | 6° |
| 2026-05-06 14:03 | 1.43819 | 101.51075 | 21831 ft | 401 kts | 6° |
| 2026-05-06 14:03 | 1.46616 | 101.51265 | 21155 ft | 401 kts | 6° |
| 2026-05-06 14:03 | 1.49410 | 101.51459 | 20507 ft | 405 kts | 6° |
| 2026-05-06 14:04 | 1.52218 | 101.51646 | 20268 ft | 396 kts | 6° |
| 2026-05-06 14:04 | 1.54937 | 101.51836 | 20023 ft | 389 kts | 6° |
| 2026-05-06 14:04 | 1.57654 | 101.52024 | 19635 ft | 386 kts | 6° |
| 2026-05-06 14:04 | 1.60341 | 101.52208 | 18944 ft | 393 kts | 6° |
| 2026-05-06 14:05 | 1.63054 | 101.52545 | 17955 ft | 396 kts | 18° |
| 2026-05-06 14:05 | 1.65465 | 101.53822 | 16963 ft | 399 kts | 39° |
| 2026-05-06 14:05 | 1.67589 | 101.55631 | 16369 ft | 398 kts | 42° |
| 2026-05-06 14:05 | 1.69635 | 101.57407 | 15964 ft | 374 kts | 42° |
| 2026-05-06 14:06 | 1.71530 | 101.59022 | 15790 ft | 348 kts | 41° |
| 2026-05-06 14:06 | 1.73340 | 101.60541 | 15252 ft | 336 kts | 41° |
| 2026-05-06 14:06 | 1.75165 | 101.62047 | 14322 ft | 342 kts | 40° |
| 2026-05-06 14:06 | 1.77012 | 101.63551 | 13889 ft | 342 kts | 40° |
| 2026-05-06 14:07 | 1.78841 | 101.65028 | 13536 ft | 340 kts | 40° |
| 2026-05-06 14:07 | 1.80701 | 101.66528 | 13139 ft | 338 kts | 40° |
| 2026-05-06 14:07 | 1.82683 | 101.67770 | 12587 ft | 337 kts | 24° |
| 2026-05-06 14:07 | 1.84849 | 101.68500 | 12304 ft | 325 kts | 19° |
| 2026-05-06 14:08 | 1.86994 | 101.69145 | 12090 ft | 312 kts | 19° |
| 2026-05-06 14:08 | 1.89045 | 101.69775 | 11836 ft | 302 kts | 19° |
| 2026-05-06 14:08 | 1.91035 | 101.70409 | 11432 ft | 298 kts | 20° |
| 2026-05-06 14:08 | 1.92991 | 101.71054 | 10992 ft | 297 kts | 20° |
| 2026-05-06 14:09 | 1.94943 | 101.71709 | 10548 ft | 295 kts | 20° |
| 2026-05-06 14:09 | 1.96877 | 101.72366 | 10098 ft | 292 kts | 20° |
| 2026-05-06 14:09 | 1.98811 | 101.73025 | 9636 ft | 291 kts | 20° |
| 2026-05-06 14:09 | 2.00720 | 101.73679 | 9292 ft | 290 kts | 20° |
| 2026-05-06 14:10 | 2.02640 | 101.74338 | 9066 ft | 288 kts | 20° |
| 2026-05-06 14:10 | 2.04543 | 101.74995 | 8895 ft | 287 kts | 20° |
| 2026-05-06 14:10 | 2.06405 | 101.75637 | 8741 ft | 285 kts | 19° |
| 2026-05-06 14:10 | 2.08277 | 101.76283 | 8595 ft | 282 kts | 19° |
| 2026-05-06 14:11 | 2.10153 | 101.76929 | 8401 ft | 281 kts | 19° |
| 2026-05-06 14:11 | 2.11983 | 101.77558 | 8140 ft | 279 kts | 19° |
| 2026-05-06 14:11 | 2.13812 | 101.78186 | 7999 ft | 272 kts | 19° |
| 2026-05-06 14:11 | 2.15582 | 101.78793 | 7833 ft | 266 kts | 19° |
| 2026-05-06 14:12 | 2.17343 | 101.79398 | 7426 ft | 265 kts | 19° |
| 2026-05-06 14:12 | 2.19095 | 101.80001 | 7163 ft | 264 kts | 19° |
| 2026-05-06 14:12 | 2.20847 | 101.80606 | 6917 ft | 263 kts | 19° |
| 2026-05-06 14:12 | 2.22574 | 101.81202 | 6674 ft | 262 kts | 19° |
| 2026-05-06 14:13 | 2.24300 | 101.81798 | 6393 ft | 262 kts | 19° |
| 2026-05-06 14:13 | 2.26030 | 101.82395 | 6069 ft | 262 kts | 19° |
| 2026-05-06 14:13 | 2.27786 | 101.83001 | 5724 ft | 262 kts | 19° |
| 2026-05-06 14:13 | 2.29506 | 101.83594 | 5402 ft | 263 kts | 19° |
| 2026-05-06 14:14 | 2.31243 | 101.84193 | 5109 ft | 264 kts | 19° |
| 2026-05-06 14:14 | 2.33005 | 101.84802 | 4860 ft | 263 kts | 19° |
| 2026-05-06 14:14 | 2.34736 | 101.85399 | 4638 ft | 262 kts | 19° |
| 2026-05-06 14:14 | 2.36448 | 101.85989 | 4525 ft | 256 kts | 20° |
| 2026-05-06 14:15 | 2.38093 | 101.86557 | 4507 ft | 245 kts | 20° |
| 2026-05-06 14:15 | 2.39683 | 101.87106 | 4499 ft | 233 kts | 20° |
| 2026-05-06 14:15 | 2.41171 | 101.87618 | 4494 ft | 221 kts | 20° |
| 2026-05-06 14:15 | 2.42598 | 101.88110 | 4491 ft | 209 kts | 20° |
| 2026-05-06 14:16 | 2.43947 | 101.88575 | 4488 ft | 197 kts | 20° |
| 2026-05-06 14:16 | 2.45252 | 101.89026 | 4501 ft | 197 kts | 20° |
| 2026-05-06 14:16 | 2.46556 | 101.89476 | 4505 ft | 197 kts | 20° |
| 2026-05-06 14:16 | 2.47903 | 101.89658 | 4502 ft | 199 kts | 352° |
| 2026-05-06 14:17 | 2.49244 | 101.89258 | 4511 ft | 200 kts | 334° |
| 2026-05-06 14:17 | 2.50460 | 101.88578 | 4511 ft | 200 kts | 328° |
| 2026-05-06 14:17 | 2.51622 | 101.87811 | 4509 ft | 200 kts | 326° |
| 2026-05-06 14:17 | 2.52773 | 101.87024 | 4509 ft | 200 kts | 326° |
| 2026-05-06 14:18 | 2.53930 | 101.86232 | 4509 ft | 200 kts | 326° |
| 2026-05-06 14:18 | 2.55090 | 101.85443 | 4456 ft | 201 kts | 326° |
| 2026-05-06 14:18 | 2.56249 | 101.84661 | 4233 ft | 203 kts | 326° |
| 2026-05-06 14:18 | 2.57440 | 101.83861 | 3974 ft | 206 kts | 326° |
| 2026-05-06 14:19 | 2.58655 | 101.83047 | 3707 ft | 209 kts | 326° |
| 2026-05-06 14:19 | 2.59880 | 101.82226 | 3436 ft | 213 kts | 326° |
| 2026-05-06 14:19 | 2.61119 | 101.81396 | 3143 ft | 215 kts | 326° |
| 2026-05-06 14:19 | 2.62360 | 101.80566 | 2856 ft | 210 kts | 326° |
| 2026-05-06 14:20 | 2.63546 | 101.79771 | 2620 ft | 202 kts | 326° |
| 2026-05-06 14:20 | 2.64706 | 101.78995 | 2364 ft | 194 kts | 326° |
| 2026-05-06 14:20 | 2.65794 | 101.78265 | 2129 ft | 183 kts | 326° |
| 2026-05-06 14:20 | 2.66836 | 101.77567 | 1898 ft | 174 kts | 327° |
| 2026-05-06 14:21 | 2.67829 | 101.76905 | 1674 ft | 167 kts | 326° |
| 2026-05-06 14:21 | 2.68771 | 101.76271 | 1464 ft | 160 kts | 326° |
| 2026-05-06 14:21 | 2.69682 | 101.75657 | 1266 ft | 154 kts | 326° |
| 2026-05-06 14:21 | 2.70551 | 101.75074 | 1073 ft | 148 kts | 326° |
| 2026-05-06 14:22 | 2.71400 | 101.74506 | 887 ft | 146 kts | 326° |
| 2026-05-06 14:22 | 2.72248 | 101.73939 | 703 ft | 146 kts | 326° |
| 2026-05-06 14:22 | 2.73098 | 101.73369 | 510 ft | 145 kts | 326° |
| 2026-05-06 14:22 | 2.73925 | 101.72815 | 324 ft | 144 kts | 326° |
| 2026-05-06 14:23 | 2.74757 | 101.72259 | 137 ft | 143 kts | 326° |
| 2026-05-06 14:23 | 2.75549 | 101.71731 | 84 ft | 111 kts | 325° |
| 2026-05-06 14:23 | 2.75979 | 101.71442 | 84 ft | 56 kts | 326° |
| 2026-05-06 14:23 | 2.76287 | 101.71240 | 84 ft | 47 kts | 324° |
| 2026-05-06 14:24 | 2.76500 | 101.71068 | 84 ft | 37 kts | 304° |
| 2026-05-06 14:24 | 2.76581 | 101.70882 | 84 ft | 17 kts | 260° |
| 2026-05-06 14:24 | 2.76525 | 101.70853 | 84 ft | 5 kts | 166° |
| 2026-05-06 14:24 | 2.76491 | 101.70866 | 84 ft | 4 kts | 147° |
| 2026-05-06 14:25 | 2.76466 | 101.70882 | 84 ft | 3 kts | 147° |
| 2026-05-06 14:25 | 2.76449 | 101.70894 | 84 ft | 3 kts | 147° |
| 2026-05-06 14:25 | 2.76437 | 101.70901 | 84 ft | 1 kts | 146° |
| 2026-05-06 14:25 | 2.76423 | 101.70911 | 84 ft | 3 kts | 146° |
| 2026-05-06 14:26 | 2.76392 | 101.70933 | 84 ft | 7 kts | 143° |
| 2026-05-06 14:26 | 2.76339 | 101.70972 | 84 ft | 10 kts | 144° |
| 2026-05-06 14:26 | 2.76268 | 101.71018 | 84 ft | 13 kts | 147° |
| 2026-05-06 14:26 | 2.76179 | 101.71075 | 84 ft | 15 kts | 147° |
| 2026-05-06 14:27 | 2.76087 | 101.71137 | 84 ft | 16 kts | 146° |
| 2026-05-06 14:27 | 2.75993 | 101.71199 | 84 ft | 15 kts | 146° |
| 2026-05-06 14:27 | 2.75898 | 101.71263 | 84 ft | 16 kts | 146° |
| 2026-05-06 14:27 | 2.75801 | 101.71329 | 84 ft | 17 kts | 146° |
| 2026-05-06 14:28 | 2.75700 | 101.71397 | 84 ft | 17 kts | 146° |
| 2026-05-06 14:28 | 2.75598 | 101.71465 | 84 ft | 14 kts | 146° |
| 2026-05-06 14:28 | 2.75519 | 101.71517 | 84 ft | 10 kts | 146° |
| 2026-05-06 14:28 | 2.75471 | 101.71541 | 84 ft | 7 kts | 181° |
| 2026-05-06 14:29 | 2.75418 | 101.71497 | 84 ft | 12 kts | 234° |
| 2026-05-06 14:29 | 2.75361 | 101.71413 | 84 ft | 15 kts | 236° |
| 2026-05-06 14:29 | 2.75299 | 101.71323 | 84 ft | 14 kts | 236° |
| 2026-05-06 14:29 | 2.75242 | 101.71262 | 84 ft | 8 kts | 191° |
| 2026-05-06 14:30 | 2.75168 | 101.71291 | 84 ft | 13 kts | 146° |
| 2026-05-06 14:30 | 2.75103 | 101.71336 | 84 ft | 6 kts | 145° |
| 2026-05-06 14:30 | 2.75080 | 101.71349 | 84 ft | 2 kts | 175° |
| 2026-05-06 14:30 | 2.75050 | 101.71333 | 84 ft | 6 kts | 221° |
| 2026-05-06 14:31 | 2.75025 | 101.71303 | 84 ft | 3 kts | 235° |
| 2026-05-06 14:31 | 2.75021 | 101.71298 | 84 ft | 0 kts | 236° |